createdAt,value
2018-03-07T00:00:46.129Z,0.00
2018-03-07T00:01:46.134Z,0.00
2018-03-07T00:02:46.143Z,0.00
2018-03-07T00:03:46.148Z,0.00
2018-03-07T00:04:46.171Z,0.00
2018-03-07T00:05:46.150Z,0.00
2018-03-07T00:06:46.167Z,0.00
2018-03-07T00:07:46.163Z,0.00
2018-03-07T00:08:46.177Z,0.00
2018-03-07T00:09:46.175Z,0.00
2018-03-07T00:10:46.175Z,0.00
2018-03-07T00:11:46.177Z,0.00
2018-03-07T00:12:46.212Z,0.00
2018-03-07T00:13:46.176Z,0.00
2018-03-07T00:14:46.191Z,0.00
2018-03-07T00:15:46.190Z,0.00
2018-03-07T00:16:46.198Z,0.00
2018-03-07T00:17:46.225Z,0.00
2018-03-07T00:18:46.197Z,0.00
2018-03-07T00:19:46.200Z,0.00
2018-03-07T00:20:46.228Z,0.00
2018-03-07T00:21:46.219Z,0.00
2018-03-07T00:22:46.215Z,0.00
2018-03-07T00:23:46.225Z,0.00
2018-03-07T00:24:46.233Z,0.00
2018-03-07T00:25:46.226Z,0.00
2018-03-07T00:26:46.236Z,0.00
2018-03-07T00:27:46.234Z,0.00
2018-03-07T00:28:46.234Z,0.00
2018-03-07T00:29:46.237Z,0.00
2018-03-07T00:30:46.254Z,0.00
2018-03-07T00:31:46.249Z,0.00
2018-03-07T00:32:47.124Z,0.00
2018-03-07T00:33:46.263Z,4.00
2018-03-07T00:34:46.272Z,0.00
2018-03-07T00:35:46.269Z,0.00
2018-03-07T00:36:46.271Z,0.00
2018-03-07T00:37:46.267Z,0.00
2018-03-07T00:38:46.292Z,0.00
2018-03-07T00:39:46.285Z,0.00
2018-03-07T00:40:46.282Z,0.00
2018-03-07T00:41:46.290Z,0.00
2018-03-07T00:42:46.288Z,0.00
2018-03-07T00:43:46.302Z,0.00
2018-03-07T00:44:46.359Z,0.00
2018-03-07T00:45:46.299Z,0.00
2018-03-07T00:46:46.304Z,0.00
2018-03-07T00:47:46.331Z,0.00
2018-03-07T00:48:46.314Z,0.00
2018-03-07T00:49:46.325Z,0.00
2018-03-07T00:50:46.315Z,0.00
2018-03-07T00:51:46.322Z,0.00
2018-03-07T00:52:46.328Z,0.00
2018-03-07T00:53:46.330Z,0.00
2018-03-07T00:54:46.334Z,0.00
2018-03-07T00:55:46.339Z,0.00
2018-03-07T00:56:46.352Z,0.00
2018-03-07T00:57:46.347Z,0.00
2018-03-07T00:58:46.350Z,0.00
2018-03-07T00:59:46.356Z,0.00
2018-03-07T01:00:46.358Z,0.00
2018-03-07T01:01:46.374Z,0.00
2018-03-07T01:02:47.044Z,0.00
2018-03-07T01:03:46.366Z,0.00
2018-03-07T01:04:46.368Z,0.00
2018-03-07T01:05:46.380Z,0.00
2018-03-07T01:06:46.376Z,0.00
2018-03-07T01:07:46.413Z,0.00
2018-03-07T01:08:46.382Z,0.00
2018-03-07T01:09:46.387Z,0.00
2018-03-07T01:10:46.394Z,0.00
2018-03-07T01:11:46.404Z,4.00
2018-03-07T01:12:46.408Z,0.00
2018-03-07T01:13:46.410Z,0.00
2018-03-07T01:14:46.418Z,0.00
2018-03-07T01:15:46.415Z,0.00
2018-03-07T01:16:46.430Z,0.00
2018-03-07T01:17:46.437Z,0.00
2018-03-07T01:18:46.430Z,0.00
2018-03-07T01:19:46.460Z,0.00
2018-03-07T01:20:46.438Z,0.00
2018-03-07T01:21:46.469Z,0.00
2018-03-07T01:22:46.445Z,0.00
2018-03-07T01:23:46.452Z,0.00
2018-03-07T01:24:46.463Z,0.00
2018-03-07T01:25:46.453Z,0.00
2018-03-07T01:26:46.462Z,0.00
2018-03-07T01:27:46.468Z,0.00
2018-03-07T01:28:46.484Z,0.00
2018-03-07T01:29:46.484Z,0.00
2018-03-07T01:30:46.482Z,0.00
2018-03-07T01:31:46.472Z,0.00
2018-03-07T01:32:46.480Z,0.00
2018-03-07T01:33:46.483Z,0.00
2018-03-07T01:34:46.485Z,0.00
2018-03-07T01:35:46.485Z,0.00
2018-03-07T01:36:46.524Z,0.00
2018-03-07T01:37:46.500Z,0.00
2018-03-07T01:38:46.506Z,0.00
2018-03-07T01:39:46.507Z,0.00
2018-03-07T01:40:46.507Z,0.00
2018-03-07T01:41:46.507Z,0.00
2018-03-07T01:42:46.517Z,0.00
2018-03-07T01:43:46.531Z,0.00
2018-03-07T01:44:46.519Z,0.00
2018-03-07T01:45:46.533Z,0.00
2018-03-07T01:46:46.542Z,0.00
2018-03-07T01:47:46.545Z,0.00
2018-03-07T01:48:46.543Z,0.00
2018-03-07T01:49:46.542Z,0.00
2018-03-07T01:50:46.600Z,0.00
2018-03-07T01:51:46.558Z,0.00
2018-03-07T01:52:46.555Z,0.00
2018-03-07T01:53:46.614Z,0.00
2018-03-07T01:54:46.598Z,0.00
2018-03-07T01:55:46.567Z,0.00
2018-03-07T01:56:46.570Z,0.00
2018-03-07T01:57:46.573Z,0.00
2018-03-07T01:58:46.573Z,0.00
2018-03-07T01:59:46.581Z,0.00
2018-03-07T02:00:46.591Z,0.00
2018-03-07T02:01:46.587Z,0.00
2018-03-07T02:02:46.593Z,0.00
2018-03-07T02:03:46.599Z,0.00
2018-03-07T02:04:46.591Z,0.00
2018-03-07T02:05:46.597Z,0.00
2018-03-07T02:06:46.604Z,0.00
2018-03-07T02:07:46.610Z,0.00
2018-03-07T02:08:46.605Z,0.00
2018-03-07T02:09:46.612Z,0.00
2018-03-07T02:10:46.620Z,0.00
2018-03-07T02:11:46.618Z,0.00
2018-03-07T02:12:46.628Z,0.00
2018-03-07T02:13:46.653Z,0.00
2018-03-07T02:14:46.652Z,0.00
2018-03-07T02:15:46.634Z,0.00
2018-03-07T02:16:46.653Z,0.00
2018-03-07T02:17:46.650Z,0.00
2018-03-07T02:18:46.657Z,0.00
2018-03-07T02:19:46.668Z,0.00
2018-03-07T02:20:46.702Z,0.00
2018-03-07T02:21:46.653Z,0.00
2018-03-07T02:22:46.663Z,0.00
2018-03-07T02:23:46.672Z,0.00
2018-03-07T02:24:46.712Z,0.00
2018-03-07T02:25:46.678Z,0.00
2018-03-07T02:26:46.681Z,0.00
2018-03-07T02:27:46.692Z,0.00
2018-03-07T02:28:46.693Z,0.00
2018-03-07T02:29:46.684Z,0.00
2018-03-07T02:30:46.694Z,0.00
2018-03-07T02:31:46.700Z,0.00
2018-03-07T02:32:46.700Z,0.00
2018-03-07T02:33:46.704Z,0.00
2018-03-07T02:34:46.778Z,0.00
2018-03-07T02:35:46.718Z,0.00
2018-03-07T02:36:46.717Z,0.00
2018-03-07T02:37:46.719Z,0.00
2018-03-07T02:38:46.726Z,0.00
2018-03-07T02:39:46.721Z,0.00
2018-03-07T02:40:46.729Z,0.00
2018-03-07T02:41:46.742Z,0.00
2018-03-07T02:42:46.742Z,0.00
2018-03-07T02:43:46.739Z,0.00
2018-03-07T02:44:46.748Z,0.00
2018-03-07T02:45:46.754Z,0.00
2018-03-07T02:46:46.748Z,0.00
2018-03-07T02:47:46.750Z,0.00
2018-03-07T02:48:46.757Z,0.00
2018-03-07T02:49:46.759Z,0.00
2018-03-07T02:50:46.771Z,0.00
2018-03-07T02:51:46.773Z,0.00
2018-03-07T02:52:46.803Z,0.00
2018-03-07T02:53:46.779Z,0.00
2018-03-07T02:54:46.786Z,0.00
2018-03-07T02:55:46.820Z,0.00
2018-03-07T02:56:46.786Z,0.00
2018-03-07T02:57:46.788Z,0.00
2018-03-07T02:58:46.798Z,0.00
2018-03-07T02:59:46.805Z,0.00
2018-03-07T03:00:46.805Z,0.00
2018-03-07T03:01:46.807Z,0.00
2018-03-07T03:02:46.813Z,0.00
2018-03-07T03:03:46.820Z,0.00
2018-03-07T03:04:46.918Z,0.00
2018-03-07T03:05:46.822Z,0.00
2018-03-07T03:06:46.826Z,0.00
2018-03-07T03:07:46.837Z,0.00
2018-03-07T03:08:46.848Z,0.00
2018-03-07T03:09:46.837Z,0.00
2018-03-07T03:10:47.573Z,0.00
2018-03-07T03:11:46.844Z,0.00
2018-03-07T03:12:46.848Z,0.00
2018-03-07T03:13:46.853Z,0.00
2018-03-07T03:14:46.849Z,0.00
2018-03-07T03:15:46.857Z,0.00
2018-03-07T03:16:46.858Z,0.00
2018-03-07T03:17:46.881Z,0.00
2018-03-07T03:18:46.862Z,0.00
2018-03-07T03:19:46.872Z,0.00
2018-03-07T03:20:46.872Z,0.00
2018-03-07T03:21:46.888Z,0.00
2018-03-07T03:22:46.883Z,0.00
2018-03-07T03:23:46.883Z,0.00
2018-03-07T03:24:46.893Z,0.00
2018-03-07T03:25:46.895Z,0.00
2018-03-07T03:26:46.920Z,0.00
2018-03-07T03:27:46.897Z,0.00
2018-03-07T03:28:46.905Z,0.00
2018-03-07T03:29:46.905Z,0.00
2018-03-07T03:30:46.972Z,0.00
2018-03-07T03:31:46.916Z,0.00
2018-03-07T03:32:46.922Z,0.00
2018-03-07T03:33:46.924Z,0.00
2018-03-07T03:34:46.931Z,0.00
2018-03-07T03:35:46.928Z,0.00
2018-03-07T03:36:46.938Z,0.00
2018-03-07T03:37:46.952Z,0.00
2018-03-07T03:38:46.931Z,0.00
2018-03-07T03:39:46.959Z,0.00
2018-03-07T03:40:46.946Z,0.00
2018-03-07T03:41:46.960Z,0.00
2018-03-07T03:42:46.942Z,0.00
2018-03-07T03:43:46.968Z,0.00
2018-03-07T03:44:46.955Z,0.00
2018-03-07T03:45:46.965Z,0.00
2018-03-07T03:46:46.976Z,0.00
2018-03-07T03:47:46.988Z,0.00
2018-03-07T03:48:46.967Z,0.00
2018-03-07T03:49:46.974Z,0.00
2018-03-07T03:50:46.978Z,0.00
2018-03-07T03:51:46.984Z,0.00
2018-03-07T03:52:46.990Z,0.00
2018-03-07T03:53:46.990Z,0.00
2018-03-07T03:54:46.993Z,0.00
2018-03-07T03:55:47.022Z,0.00
2018-03-07T03:56:47.024Z,4.00
2018-03-07T03:57:47.005Z,0.00
2018-03-07T03:58:47.015Z,0.00
2018-03-07T03:59:47.017Z,0.00
2018-03-07T04:00:47.017Z,0.00
2018-03-07T04:01:47.006Z,0.00
2018-03-07T04:02:47.014Z,0.00
2018-03-07T04:03:47.014Z,0.00
2018-03-07T04:04:47.023Z,0.00
2018-03-07T04:05:47.018Z,0.00
2018-03-07T04:06:47.032Z,0.00
2018-03-07T04:07:47.027Z,0.00
2018-03-07T04:08:47.039Z,0.00
2018-03-07T04:09:47.044Z,0.00
2018-03-07T04:10:47.056Z,0.00
2018-03-07T04:11:47.056Z,0.00
2018-03-07T04:12:47.045Z,0.00
2018-03-07T04:13:47.051Z,0.00
2018-03-07T04:14:47.078Z,0.00
2018-03-07T04:15:47.055Z,0.00
2018-03-07T04:16:47.067Z,0.00
2018-03-07T04:17:47.058Z,0.00
2018-03-07T04:18:47.078Z,0.00
2018-03-07T04:19:47.078Z,0.00
2018-03-07T04:20:47.076Z,0.00
2018-03-07T04:21:47.079Z,0.00
2018-03-07T04:22:47.095Z,0.00
2018-03-07T04:23:47.096Z,0.00
2018-03-07T04:24:47.121Z,0.00
2018-03-07T04:25:47.112Z,0.00
2018-03-07T04:26:47.091Z,0.00
2018-03-07T04:27:47.103Z,4.00
2018-03-07T04:28:47.111Z,0.00
2018-03-07T04:29:47.113Z,0.00
2018-03-07T04:30:47.103Z,0.00
2018-03-07T04:31:47.207Z,0.00
2018-03-07T04:32:47.136Z,0.00
2018-03-07T04:33:47.191Z,0.00
2018-03-07T04:34:47.160Z,0.00
2018-03-07T04:35:47.122Z,0.00
2018-03-07T04:36:47.127Z,0.00
2018-03-07T04:37:47.131Z,0.00
2018-03-07T04:38:47.136Z,0.00
2018-03-07T04:39:47.135Z,0.00
2018-03-07T04:40:47.147Z,0.00
2018-03-07T04:41:47.140Z,0.00
2018-03-07T04:42:47.154Z,0.00
2018-03-07T04:43:48.097Z,0.00
2018-03-07T04:44:47.153Z,0.00
2018-03-07T04:45:47.160Z,0.00
2018-03-07T04:46:47.168Z,0.00
2018-03-07T04:47:47.172Z,0.00
2018-03-07T04:48:47.171Z,0.00
2018-03-07T04:49:47.174Z,0.00
2018-03-07T04:50:47.185Z,4.00
2018-03-07T04:51:47.225Z,0.00
2018-03-07T04:52:47.241Z,0.00
2018-03-07T04:53:47.186Z,0.00
2018-03-07T04:54:47.192Z,0.00
2018-03-07T04:55:47.191Z,0.00
2018-03-07T04:56:47.196Z,0.00
2018-03-07T04:57:47.212Z,0.00
2018-03-07T04:58:47.205Z,0.00
2018-03-07T04:59:47.206Z,0.00
2018-03-07T05:00:47.209Z,0.00
2018-03-07T05:01:47.211Z,0.00
2018-03-07T05:02:47.290Z,0.00
2018-03-07T05:03:48.100Z,0.00
2018-03-07T05:04:47.219Z,0.00
2018-03-07T05:05:47.227Z,0.00
2018-03-07T05:06:47.248Z,0.00
2018-03-07T05:07:47.229Z,0.00
2018-03-07T05:08:47.238Z,0.00
2018-03-07T05:09:47.244Z,0.00
2018-03-07T05:10:47.238Z,0.00
2018-03-07T05:11:47.241Z,4.00
2018-03-07T05:12:47.246Z,0.00
2018-03-07T05:13:47.254Z,0.00
2018-03-07T05:14:47.259Z,0.00
2018-03-07T05:15:47.258Z,4.00
2018-03-07T05:16:47.267Z,0.00
2018-03-07T05:17:47.258Z,4.00
2018-03-07T05:18:47.280Z,0.00
2018-03-07T05:19:47.271Z,0.00
2018-03-07T05:20:47.271Z,8.00
2018-03-07T05:21:47.276Z,0.00
2018-03-07T05:22:47.288Z,0.00
2018-03-07T05:23:47.289Z,4.00
2018-03-07T05:24:47.294Z,0.00
2018-03-07T05:25:47.292Z,4.00
2018-03-07T05:26:47.292Z,4.00
2018-03-07T05:27:47.291Z,4.00
2018-03-07T05:28:47.346Z,4.00
2018-03-07T05:29:47.304Z,4.00
2018-03-07T05:30:47.311Z,4.00
2018-03-07T05:31:47.316Z,4.00
2018-03-07T05:32:47.328Z,4.00
2018-03-07T05:33:47.316Z,4.00
2018-03-07T05:34:47.320Z,4.00
2018-03-07T05:35:47.325Z,4.00
2018-03-07T05:36:48.818Z,4.00
2018-03-07T05:37:47.329Z,4.00
2018-03-07T05:38:47.328Z,8.00
2018-03-07T05:39:47.339Z,4.00
2018-03-07T05:40:47.336Z,4.00
2018-03-07T05:41:47.344Z,4.00
2018-03-07T05:42:47.341Z,4.00
2018-03-07T05:43:47.348Z,8.00
2018-03-07T05:44:47.345Z,8.00
2018-03-07T05:45:47.356Z,8.00
2018-03-07T05:46:47.359Z,8.00
2018-03-07T05:47:47.367Z,12.00
2018-03-07T05:48:47.359Z,8.00
2018-03-07T05:49:47.374Z,12.00
2018-03-07T05:50:47.377Z,16.00
2018-03-07T05:51:47.407Z,20.00
2018-03-07T05:52:47.388Z,16.00
2018-03-07T05:53:47.389Z,20.00
2018-03-07T05:54:47.421Z,24.00
2018-03-07T05:55:47.401Z,28.00
2018-03-07T05:56:47.407Z,28.00
2018-03-07T05:57:47.402Z,36.00
2018-03-07T05:58:47.486Z,36.00
2018-03-07T05:59:47.418Z,44.00
2018-03-07T06:00:47.440Z,48.00
2018-03-07T06:01:47.429Z,56.00
2018-03-07T06:02:47.413Z,64.00
2018-03-07T06:03:47.417Z,68.00
2018-03-07T06:04:47.425Z,76.00
2018-03-07T06:05:47.542Z,84.00
2018-03-07T06:06:47.422Z,92.00
2018-03-07T06:07:47.422Z,104.00
2018-03-07T06:08:47.432Z,112.00
2018-03-07T06:09:47.505Z,124.00
2018-03-07T06:10:47.448Z,136.00
2018-03-07T06:11:47.445Z,148.00
2018-03-07T06:12:47.444Z,160.00
2018-03-07T06:13:47.440Z,176.00
2018-03-07T06:14:47.456Z,192.00
2018-03-07T06:15:47.450Z,208.00
2018-03-07T06:16:47.455Z,224.00
2018-03-07T06:17:47.462Z,244.00
2018-03-07T06:18:47.477Z,264.00
2018-03-07T06:19:47.463Z,288.00
2018-03-07T06:20:47.470Z,308.00
2018-03-07T06:21:47.506Z,332.00
2018-03-07T06:23:40.391Z,376.00
2018-03-07T06:24:40.359Z,392.00
2018-03-07T06:26:33.355Z,432.00
2018-03-07T06:27:33.319Z,456.00
2018-03-07T06:29:26.278Z,516.00
2018-03-07T06:30:26.282Z,548.00
2018-03-07T06:32:19.263Z,616.00
2018-03-07T06:33:19.233Z,656.00
2018-03-07T06:35:12.208Z,736.00
2018-03-07T06:36:12.191Z,796.00
2018-03-07T06:38:05.203Z,896.00
2018-03-07T06:39:05.150Z,960.00
2018-03-07T06:40:58.105Z,1092.00
2018-03-07T06:41:58.106Z,1176.00
2018-03-07T06:43:51.084Z,1368.00
2018-03-07T06:44:51.070Z,1456.00
2018-03-07T06:45:51.071Z,1564.00
2018-03-07T06:46:51.072Z,1688.00
2018-03-07T06:47:51.126Z,1780.00
2018-03-07T06:48:51.082Z,1888.00
2018-03-07T06:49:51.106Z,2020.00
2018-03-07T06:50:51.100Z,2112.00
2018-03-07T06:51:51.101Z,2224.00
2018-03-07T06:52:51.104Z,2344.00
2018-03-07T06:53:51.089Z,2472.00
2018-03-07T06:54:51.128Z,2624.00
2018-03-07T06:55:51.112Z,2740.00
2018-03-07T06:56:51.102Z,2836.00
2018-03-07T06:57:51.109Z,2916.00
2018-03-07T06:58:51.112Z,3016.00
2018-03-07T06:59:51.117Z,3108.00
2018-03-07T07:00:51.127Z,3224.00
2018-03-07T07:01:51.151Z,3300.00
2018-03-07T07:02:51.122Z,3356.00
2018-03-07T07:04:44.141Z,3484.00
2018-03-07T07:05:44.060Z,3564.00
2018-03-07T07:07:37.516Z,3824.00
2018-03-07T07:08:37.014Z,3980.00
2018-03-07T07:10:42.755Z,4456.00
2018-03-07T07:11:42.666Z,4696.00
2018-03-07T07:13:35.633Z,5300.00
2018-03-07T07:14:35.642Z,5608.00
2018-03-07T07:16:28.621Z,6080.00
2018-03-07T07:17:28.584Z,6064.00
2018-03-07T07:19:21.561Z,5868.00
2018-03-07T07:20:21.536Z,5668.00
2018-03-07T07:21:21.546Z,5532.00
2018-03-07T07:23:14.547Z,7764.00
2018-03-07T07:24:14.503Z,22976.00
2018-03-07T07:26:07.471Z,26624.00
2018-03-07T07:27:07.468Z,26752.00
2018-03-07T07:29:00.456Z,28608.00
2018-03-07T07:30:00.420Z,19264.00
2018-03-07T07:31:53.410Z,34496.00
2018-03-07T07:32:53.378Z,38976.00
2018-03-07T07:34:46.367Z,41024.00
2018-03-07T07:35:46.348Z,43584.00
2018-03-07T07:37:39.310Z,40448.00
2018-03-07T07:38:39.323Z,19840.00
2018-03-07T07:40:32.270Z,7556.00
2018-03-07T07:41:32.342Z,7560.00
2018-03-07T07:43:25.387Z,7424.00
2018-03-07T07:44:25.442Z,7520.00
2018-03-07T07:46:18.351Z,7624.00
2018-03-07T07:47:18.319Z,7508.00
2018-03-07T07:49:11.226Z,9604.00
2018-03-07T07:50:11.231Z,27648.00
2018-03-07T07:52:04.199Z,48768.00
2018-03-07T07:53:04.176Z,49120.00
2018-03-07T07:54:04.187Z,50688.00
2018-03-07T07:55:04.196Z,53536.00
2018-03-07T07:56:04.199Z,53856.00
2018-03-07T07:57:04.229Z,52896.00
2018-03-07T07:58:04.223Z,54176.00
2018-03-07T07:59:04.222Z,57024.00
2018-03-07T08:00:04.221Z,59008.00
2018-03-07T08:01:04.238Z,59040.00
2018-03-07T08:02:04.244Z,57984.00
2018-03-07T08:03:04.250Z,59712.00
2018-03-07T08:04:04.277Z,61568.00
2018-03-07T08:05:04.268Z,62848.00
2018-03-07T08:06:04.273Z,62112.00
2018-03-07T08:07:04.286Z,62336.00
2018-03-07T08:08:04.330Z,64000.00
2018-03-07T08:09:04.319Z,64672.00
2018-03-07T08:10:04.314Z,63200.00
2018-03-07T08:11:04.325Z,62912.00
2018-03-07T08:12:04.380Z,63040.00
2018-03-07T08:13:04.363Z,62752.00
2018-03-07T08:14:04.362Z,62592.00
2018-03-07T08:15:04.372Z,61792.00
2018-03-07T08:16:04.395Z,61312.00
2018-03-07T08:17:04.400Z,61632.00
2018-03-07T08:18:04.463Z,61568.00
2018-03-07T08:19:04.424Z,62048.00
2018-03-07T08:20:04.438Z,63008.00
2018-03-07T08:21:04.458Z,62560.00
2018-03-07T08:22:04.501Z,63392.00
2018-03-07T08:23:04.483Z,63328.00
2018-03-07T08:24:04.506Z,66400.00
2018-03-07T08:25:04.528Z,66176.00
2018-03-07T08:26:04.525Z,64864.00
2018-03-07T08:27:04.541Z,61216.00
2018-03-07T08:28:04.551Z,58336.00
2018-03-07T08:29:04.568Z,53984.00
2018-03-07T08:30:04.580Z,49536.00
2018-03-07T08:31:04.623Z,41088.00
2018-03-07T08:32:04.614Z,34240.00
2018-03-07T08:33:04.634Z,30784.00
2018-03-07T08:34:04.641Z,29728.00
2018-03-07T08:35:04.664Z,28864.00
2018-03-07T08:36:04.677Z,28704.00
2018-03-07T08:37:04.700Z,28704.00
2018-03-07T08:38:04.708Z,29120.00
2018-03-07T08:39:04.735Z,29216.00
2018-03-07T08:40:04.741Z,28896.00
2018-03-07T08:41:04.764Z,28992.00
2018-03-07T08:42:04.779Z,29280.00
2018-03-07T08:43:04.797Z,29504.00
2018-03-07T08:44:04.816Z,30080.00
2018-03-07T08:45:04.837Z,30880.00
2018-03-07T08:46:04.847Z,31552.00
2018-03-07T08:47:04.868Z,31296.00
2018-03-07T08:48:04.886Z,31136.00
2018-03-07T08:49:04.900Z,30848.00
2018-03-07T08:50:04.924Z,31296.00
2018-03-07T08:51:04.945Z,31872.00
2018-03-07T08:52:04.955Z,32448.00
2018-03-07T08:53:04.976Z,32416.00
2018-03-07T08:54:04.992Z,32224.00
2018-03-07T08:55:05.650Z,31840.00
2018-03-07T08:56:06.392Z,31744.00
2018-03-07T08:57:05.054Z,31456.00
2018-03-07T08:58:05.068Z,32064.00
2018-03-07T08:59:05.247Z,32128.00
2018-03-07T09:00:05.106Z,32256.00
2018-03-07T09:01:05.140Z,31424.00
2018-03-07T09:02:05.189Z,32544.00
2018-03-07T09:03:05.201Z,31968.00
2018-03-07T09:04:05.213Z,32608.00
2018-03-07T09:05:05.203Z,32864.00
2018-03-07T09:06:05.235Z,33216.00
2018-03-07T09:07:05.241Z,32736.00
2018-03-07T09:08:05.265Z,32352.00
2018-03-07T09:09:05.276Z,32928.00
2018-03-07T09:10:05.298Z,32736.00
2018-03-07T09:11:05.336Z,33088.00
2018-03-07T09:12:05.345Z,32736.00
2018-03-07T09:13:05.366Z,32576.00
2018-03-07T09:14:05.385Z,32416.00
2018-03-07T09:15:05.405Z,32800.00
2018-03-07T09:16:05.475Z,32768.00
2018-03-07T09:17:05.444Z,33152.00
2018-03-07T09:18:05.455Z,32000.00
2018-03-07T09:19:05.498Z,32224.00
2018-03-07T09:20:05.495Z,32448.00
2018-03-07T09:21:05.523Z,32064.00
2018-03-07T09:22:05.556Z,32256.00
2018-03-07T09:23:05.556Z,32384.00
2018-03-07T09:24:05.591Z,32736.00
2018-03-07T09:25:05.604Z,32896.00
2018-03-07T09:26:05.627Z,32800.00
2018-03-07T09:27:05.646Z,32544.00
2018-03-07T09:28:05.670Z,33056.00
2018-03-07T09:29:05.711Z,32736.00
2018-03-07T09:30:05.760Z,33216.00
2018-03-07T09:31:05.727Z,33536.00
2018-03-07T09:32:05.755Z,33696.00
2018-03-07T09:33:05.774Z,34304.00
2018-03-07T09:34:05.791Z,33664.00
2018-03-07T09:35:05.821Z,33856.00
2018-03-07T09:36:05.836Z,34912.00
2018-03-07T09:37:05.857Z,35968.00
2018-03-07T09:38:05.902Z,37440.00
2018-03-07T09:39:05.904Z,37920.00
2018-03-07T09:40:05.914Z,37888.00
2018-03-07T09:41:06.796Z,39136.00
2018-03-07T09:42:05.961Z,41664.00
2018-03-07T09:43:05.989Z,42272.00
2018-03-07T09:44:05.999Z,46528.00
2018-03-07T09:45:06.018Z,52160.00
2018-03-07T09:46:06.044Z,56064.00
2018-03-07T09:47:06.069Z,59040.00
2018-03-07T09:48:06.090Z,60032.00
2018-03-07T09:49:06.106Z,61664.00
2018-03-07T09:50:06.130Z,58560.00
2018-03-07T09:51:06.158Z,57088.00
2018-03-07T09:52:06.169Z,53824.00
2018-03-07T09:53:06.225Z,54048.00
2018-03-07T09:54:06.219Z,51968.00
2018-03-07T09:55:06.244Z,52064.00
2018-03-07T09:56:06.341Z,49600.00
2018-03-07T09:57:06.331Z,56320.00
2018-03-07T09:58:06.336Z,56352.00
2018-03-07T09:59:06.314Z,54272.00
2018-03-07T10:00:06.327Z,52192.00
2018-03-07T10:01:06.350Z,52000.00
2018-03-07T10:02:06.409Z,56256.00
2018-03-07T10:03:06.409Z,58816.00
2018-03-07T10:04:06.407Z,58816.00
2018-03-07T10:05:06.432Z,60992.00
2018-03-07T10:06:06.453Z,58144.00
2018-03-07T10:07:06.523Z,52896.00
2018-03-07T10:08:06.536Z,47712.00
2018-03-07T10:09:06.519Z,45088.00
2018-03-07T10:10:06.537Z,45792.00
2018-03-07T10:11:06.583Z,45632.00
2018-03-07T10:12:06.570Z,43648.00
2018-03-07T10:13:06.594Z,40960.00
2018-03-07T10:14:06.623Z,40992.00
2018-03-07T10:15:06.633Z,40832.00
2018-03-07T10:16:06.653Z,40864.00
2018-03-07T10:17:06.673Z,40224.00
2018-03-07T10:18:06.709Z,41376.00
2018-03-07T10:19:06.736Z,41152.00
2018-03-07T10:20:06.730Z,39424.00
2018-03-07T10:21:06.755Z,38912.00
2018-03-07T10:22:06.784Z,38240.00
2018-03-07T10:23:06.790Z,37984.00
2018-03-07T10:24:06.822Z,37696.00
2018-03-07T10:25:06.835Z,38016.00
2018-03-07T10:26:06.871Z,38880.00
2018-03-07T10:27:06.902Z,39584.00
2018-03-07T10:28:06.901Z,39808.00
2018-03-07T10:29:06.920Z,39584.00
2018-03-07T10:30:06.937Z,38560.00
2018-03-07T10:31:06.952Z,38336.00
2018-03-07T10:32:06.982Z,38496.00
2018-03-07T10:33:06.997Z,38560.00
2018-03-07T10:34:07.029Z,39552.00
2018-03-07T10:35:07.053Z,40608.00
2018-03-07T10:36:07.059Z,40992.00
2018-03-07T10:37:07.085Z,40608.00
2018-03-07T10:38:07.101Z,39232.00
2018-03-07T10:39:07.122Z,38496.00
2018-03-07T10:40:07.137Z,38688.00
2018-03-07T10:41:07.185Z,39296.00
2018-03-07T10:42:07.190Z,38464.00
2018-03-07T10:43:07.209Z,38624.00
2018-03-07T10:44:07.220Z,37440.00
2018-03-07T10:45:07.246Z,35744.00
2018-03-07T10:46:07.270Z,35488.00
2018-03-07T10:47:07.298Z,36704.00
2018-03-07T10:48:07.305Z,36096.00
2018-03-07T10:49:07.329Z,37152.00
2018-03-07T10:50:07.342Z,37312.00
2018-03-07T10:51:07.363Z,34944.00
2018-03-07T10:52:07.382Z,35552.00
2018-03-07T10:53:07.405Z,35104.00
2018-03-07T10:54:07.424Z,36480.00
2018-03-07T10:55:07.444Z,38912.00
2018-03-07T10:56:07.464Z,39808.00
2018-03-07T10:57:07.488Z,40384.00
2018-03-07T10:58:07.519Z,40768.00
2018-03-07T10:59:07.515Z,43168.00
2018-03-07T11:00:07.537Z,44128.00
2018-03-07T11:01:07.560Z,45280.00
2018-03-07T11:02:07.584Z,48704.00
2018-03-07T11:03:07.593Z,51648.00
2018-03-07T11:04:07.620Z,51360.00
2018-03-07T11:05:07.643Z,52640.00
2018-03-07T11:06:07.678Z,55392.00
2018-03-07T11:07:07.680Z,56864.00
2018-03-07T11:08:07.724Z,62560.00
2018-03-07T11:09:07.736Z,68096.00
2018-03-07T11:10:07.808Z,69984.00
2018-03-07T11:11:07.785Z,61760.00
2018-03-07T11:12:07.788Z,57536.00
2018-03-07T11:13:07.838Z,53344.00
2018-03-07T11:14:07.879Z,48736.00
2018-03-07T11:15:07.864Z,47456.00
2018-03-07T11:16:07.875Z,45856.00
2018-03-07T11:17:07.903Z,44352.00
2018-03-07T11:18:07.898Z,42624.00
2018-03-07T11:19:07.934Z,40672.00
2018-03-07T11:20:07.924Z,39008.00
2018-03-07T11:21:08.001Z,36928.00
2018-03-07T11:22:08.030Z,34752.00
2018-03-07T11:23:08.038Z,32768.00
2018-03-07T11:24:08.001Z,31744.00
2018-03-07T11:25:08.077Z,31456.00
2018-03-07T11:26:08.140Z,30304.00
2018-03-07T11:27:08.128Z,29408.00
2018-03-07T11:28:08.154Z,28256.00
2018-03-07T11:29:08.080Z,26976.00
2018-03-07T11:30:08.137Z,25952.00
2018-03-07T11:31:08.116Z,24736.00
2018-03-07T11:32:08.129Z,23904.00
2018-03-07T11:33:08.151Z,22336.00
2018-03-07T11:34:08.164Z,21344.00
2018-03-07T11:35:08.185Z,20704.00
2018-03-07T11:36:08.204Z,20544.00
2018-03-07T11:37:08.224Z,20320.00
2018-03-07T11:38:08.236Z,20352.00
2018-03-07T11:39:08.252Z,20448.00
2018-03-07T11:40:08.394Z,20544.00
2018-03-07T11:41:09.295Z,20288.00
2018-03-07T11:42:08.304Z,20128.00
2018-03-07T11:43:08.317Z,19840.00
2018-03-07T11:44:08.338Z,19488.00
2018-03-07T11:45:08.363Z,19296.00
2018-03-07T11:46:08.485Z,19168.00
2018-03-07T11:47:08.395Z,19168.00
2018-03-07T11:48:08.401Z,19072.00
2018-03-07T11:49:08.423Z,18880.00
2018-03-07T11:50:08.445Z,18496.00
2018-03-07T11:51:08.460Z,18176.00
2018-03-07T11:52:09.275Z,17408.00
2018-03-07T11:53:08.485Z,16992.00
2018-03-07T11:54:08.502Z,16768.00
2018-03-07T11:55:08.537Z,16768.00
2018-03-07T11:56:08.578Z,16416.00
2018-03-07T11:57:08.540Z,16320.00
2018-03-07T11:58:08.560Z,16016.00
2018-03-07T11:59:08.579Z,15772.00
2018-03-07T12:00:08.596Z,15176.00
2018-03-07T12:01:08.616Z,15172.00
2018-03-07T12:02:08.626Z,14460.00
2018-03-07T12:03:09.284Z,12856.00
2018-03-07T12:04:08.655Z,11084.00
2018-03-07T12:05:08.680Z,12428.00
2018-03-07T12:06:08.678Z,11692.00
2018-03-07T12:07:08.700Z,9792.00
2018-03-07T12:08:08.705Z,8864.00
2018-03-07T12:09:08.721Z,7552.00
2018-03-07T12:10:08.738Z,8512.00
2018-03-07T12:11:08.752Z,8488.00
2018-03-07T12:12:08.804Z,8508.00
2018-03-07T12:13:08.833Z,8304.00
2018-03-07T12:14:08.914Z,7340.00
2018-03-07T12:15:08.815Z,6864.00
2018-03-07T12:16:08.828Z,6508.00
2018-03-07T12:17:08.850Z,6336.00
2018-03-07T12:18:08.869Z,6292.00
2018-03-07T12:19:08.885Z,6316.00
2018-03-07T12:20:08.882Z,6328.00
2018-03-07T12:21:08.891Z,6376.00
2018-03-07T12:22:08.892Z,6380.00
2018-03-07T12:23:08.922Z,6304.00
2018-03-07T12:24:08.916Z,6296.00
2018-03-07T12:25:08.933Z,6252.00
2018-03-07T12:26:08.947Z,6256.00
2018-03-07T12:27:08.956Z,6252.00
2018-03-07T12:28:09.022Z,6164.00
2018-03-07T12:29:08.982Z,5956.00
2018-03-07T12:30:08.986Z,5784.00
2018-03-07T12:31:09.000Z,5540.00
2018-03-07T12:32:09.007Z,5352.00
2018-03-07T12:33:09.030Z,5208.00
2018-03-07T12:34:09.037Z,5076.00
2018-03-07T12:35:09.046Z,4852.00
2018-03-07T12:36:09.058Z,4668.00
2018-03-07T12:37:09.116Z,4508.00
2018-03-07T12:38:09.084Z,4376.00
2018-03-07T12:39:09.094Z,4216.00
2018-03-07T12:40:09.096Z,4112.00
2018-03-07T12:41:09.121Z,4012.00
2018-03-07T12:42:09.122Z,3952.00
2018-03-07T12:43:09.129Z,3916.00
2018-03-07T12:44:09.136Z,3996.00
2018-03-07T12:45:09.143Z,4088.00
2018-03-07T12:46:09.160Z,4212.00
2018-03-07T12:47:09.167Z,4332.00
2018-03-07T12:48:09.173Z,4472.00
2018-03-07T12:49:09.181Z,4648.00
2018-03-07T12:50:09.195Z,4740.00
2018-03-07T12:51:09.210Z,4816.00
2018-03-07T12:52:09.221Z,4824.00
2018-03-07T12:53:09.219Z,4816.00
2018-03-07T12:54:09.236Z,4812.00